sensor_id;sensor_type;location;lat;lon;timestamp;P1;durP1;ratioP1;P2;durP2;ratioP2
75810;SDS011;64449;50.016;19.954;2023-10-13T00:01:58;12.30;;;4.40;;
75810;SDS011;64449;50.016;19.954;2023-10-13T00:04:26;9.10;;;4.70;;
75810;SDS011;64449;50.016;19.954;2023-10-13T00:06:57;7.90;;;4.10;;
75810;SDS011;64449;50.016;19.954;2023-10-13T00:09:23;8.10;;;4.30;;
75810;SDS011;64449;50.016;19.954;2023-10-13T00:12:00;7.70;;;4.10;;
75810;SDS011;64449;50.016;19.954;2023-10-13T00:14:25;12.40;;;5.10;;
75810;SDS011;64449;50.016;19.954;2023-10-13T00:16:58;7.30;;;4.20;;
75810;SDS011;64449;50.016;19.954;2023-10-13T00:19:35;8.40;;;3.80;;
75810;SDS011;64449;50.016;19.954;2023-10-13T00:22:11;8.40;;;4.10;;
75810;SDS011;64449;50.016;19.954;2023-10-13T00:24:44;7.80;;;3.90;;
75810;SDS011;64449;50.016;19.954;2023-10-13T00:27:20;8.20;;;4.00;;
75810;SDS011;64449;50.016;19.954;2023-10-13T00:30:07;10.80;;;5.50;;
75810;SDS011;64449;50.016;19.954;2023-10-13T00:32:42;10.80;;;4.30;;
75810;SDS011;64449;50.016;19.954;2023-10-13T00:35:13;11.50;;;3.90;;
75810;SDS011;64449;50.016;19.954;2023-10-13T00:37:49;6.90;;;4.10;;
75810;SDS011;64449;50.016;19.954;2023-10-13T00:40:18;9.20;;;3.80;;
75810;SDS011;64449;50.016;19.954;2023-10-13T00:43:08;8.00;;;4.00;;
75810;SDS011;64449;50.016;19.954;2023-10-13T00:45:46;11.10;;;4.20;;
75810;SDS011;64449;50.016;19.954;2023-10-13T00:48:20;8.30;;;4.30;;
75810;SDS011;64449;50.016;19.954;2023-10-13T00:51:11;7.70;;;3.60;;
75810;SDS011;64449;50.016;19.954;2023-10-13T00:53:44;8.70;;;4.00;;
75810;SDS011;64449;50.016;19.954;2023-10-13T00:56:12;8.00;;;3.70;;
75810;SDS011;64449;50.016;19.954;2023-10-13T00:58:53;9.80;;;4.30;;
75810;SDS011;64449;50.016;19.954;2023-10-13T01:01:22;8.20;;;3.90;;
75810;SDS011;64449;50.016;19.954;2023-10-13T01:03:54;8.80;;;4.40;;
75810;SDS011;64449;50.016;19.954;2023-10-13T01:06:21;8.90;;;3.70;;
75810;SDS011;64449;50.016;19.954;2023-10-13T01:09:00;9.90;;;4.30;;
75810;SDS011;64449;50.016;19.954;2023-10-13T01:11:36;9.10;;;4.10;;
75810;SDS011;64449;50.016;19.954;2023-10-13T01:14:10;8.00;;;4.40;;
75810;SDS011;64449;50.016;19.954;2023-10-13T01:16:37;10.60;;;5.40;;
75810;SDS011;64449;50.016;19.954;2023-10-13T01:19:10;9.60;;;3.70;;
75810;SDS011;64449;50.016;19.954;2023-10-13T01:21:37;10.50;;;4.60;;
75810;SDS011;64449;50.016;19.954;2023-10-13T01:24:06;13.70;;;4.60;;
75810;SDS011;64449;50.016;19.954;2023-10-13T01:26:35;6.60;;;3.60;;
75810;SDS011;64449;50.016;19.954;2023-10-13T01:29:07;10.60;;;4.20;;
75810;SDS011;64449;50.016;19.954;2023-10-13T01:31:37;10.00;;;4.20;;
75810;SDS011;64449;50.016;19.954;2023-10-13T01:34:10;10.10;;;4.20;;
75810;SDS011;64449;50.016;19.954;2023-10-13T01:36:45;11.00;;;4.00;;
75810;SDS011;64449;50.016;19.954;2023-10-13T01:39:10;10.70;;;4.40;;
75810;SDS011;64449;50.016;19.954;2023-10-13T01:41:36;7.20;;;3.70;;
75810;SDS011;64449;50.016;19.954;2023-10-13T01:44:04;8.90;;;4.30;;
75810;SDS011;64449;50.016;19.954;2023-10-13T01:46:30;11.90;;;5.10;;
75810;SDS011;64449;50.016;19.954;2023-10-13T01:48:55;10.20;;;4.60;;
75810;SDS011;64449;50.016;19.954;2023-10-13T01:51:23;9.10;;;4.50;;
75810;SDS011;64449;50.016;19.954;2023-10-13T01:53:48;6.20;;;4.00;;
75810;SDS011;64449;50.016;19.954;2023-10-13T01:56:21;12.00;;;4.30;;
75810;SDS011;64449;50.016;19.954;2023-10-13T01:58:48;9.60;;;4.30;;
75810;SDS011;64449;50.016;19.954;2023-10-13T02:01:13;7.10;;;3.30;;
75810;SDS011;64449;50.016;19.954;2023-10-13T02:03:49;13.70;;;4.90;;
75810;SDS011;64449;50.016;19.954;2023-10-13T02:06:26;7.00;;;3.50;;
75810;SDS011;64449;50.016;19.954;2023-10-13T02:08:57;6.40;;;3.10;;
75810;SDS011;64449;50.016;19.954;2023-10-13T02:11:39;6.30;;;3.10;;
75810;SDS011;64449;50.016;19.954;2023-10-13T02:14:06;9.50;;;3.20;;
75810;SDS011;64449;50.016;19.954;2023-10-13T02:16:32;9.60;;;4.10;;
75810;SDS011;64449;50.016;19.954;2023-10-13T02:18:57;5.20;;;3.40;;
75810;SDS011;64449;50.016;19.954;2023-10-13T02:21:29;9.60;;;3.40;;
75810;SDS011;64449;50.016;19.954;2023-10-13T02:23:56;6.60;;;3.90;;
75810;SDS011;64449;50.016;19.954;2023-10-13T02:26:25;8.00;;;3.20;;
75810;SDS011;64449;50.016;19.954;2023-10-13T02:29:04;10.50;;;3.70;;
75810;SDS011;64449;50.016;19.954;2023-10-13T02:31:36;7.60;;;3.30;;
75810;SDS011;64449;50.016;19.954;2023-10-13T02:34:03;7.30;;;3.70;;
75810;SDS011;64449;50.016;19.954;2023-10-13T02:36:37;8.60;;;3.20;;
75810;SDS011;64449;50.016;19.954;2023-10-13T02:39:17;6.40;;;3.20;;
75810;SDS011;64449;50.016;19.954;2023-10-13T02:41:50;6.10;;;3.30;;
75810;SDS011;64449;50.016;19.954;2023-10-13T02:44:16;7.10;;;3.00;;
75810;SDS011;64449;50.016;19.954;2023-10-13T02:46:52;12.50;;;7.10;;
75810;SDS011;64449;50.016;19.954;2023-10-13T02:49:21;15.30;;;7.30;;
75810;SDS011;64449;50.016;19.954;2023-10-13T02:51:50;10.90;;;4.90;;
75810;SDS011;64449;50.016;19.954;2023-10-13T02:54:18;10.50;;;6.30;;
75810;SDS011;64449;50.016;19.954;2023-10-13T02:56:44;8.10;;;4.30;;
75810;SDS011;64449;50.016;19.954;2023-10-13T02:59:22;8.60;;;4.40;;
75810;SDS011;64449;50.016;19.954;2023-10-13T03:04:38;10.80;;;4.50;;
75810;SDS011;64449;50.016;19.954;2023-10-13T03:07:04;9.90;;;4.40;;
75810;SDS011;64449;50.016;19.954;2023-10-13T03:09:29;9.80;;;4.10;;
75810;SDS011;64449;50.016;19.954;2023-10-13T03:11:54;7.20;;;4.00;;
75810;SDS011;64449;50.016;19.954;2023-10-13T03:14:21;7.90;;;4.40;;
75810;SDS011;64449;50.016;19.954;2023-10-13T03:17:00;12.40;;;4.10;;
75810;SDS011;64449;50.016;19.954;2023-10-13T03:19:29;9.60;;;3.60;;
75810;SDS011;64449;50.016;19.954;2023-10-13T03:22:01;11.50;;;6.90;;
75810;SDS011;64449;50.016;19.954;2023-10-13T03:24:37;12.20;;;6.30;;
75810;SDS011;64449;50.016;19.954;2023-10-13T03:27:10;6.50;;;3.90;;
75810;SDS011;64449;50.016;19.954;2023-10-13T03:29:41;8.30;;;3.90;;
75810;SDS011;64449;50.016;19.954;2023-10-13T03:32:11;10.10;;;4.80;;
75810;SDS011;64449;50.016;19.954;2023-10-13T03:34:39;8.60;;;5.00;;
75810;SDS011;64449;50.016;19.954;2023-10-13T03:37:26;6.00;;;4.00;;
75810;SDS011;64449;50.016;19.954;2023-10-13T03:40:06;7.90;;;4.50;;
75810;SDS011;64449;50.016;19.954;2023-10-13T03:42:45;8.00;;;4.20;;
75810;SDS011;64449;50.016;19.954;2023-10-13T03:45:39;6.80;;;3.80;;
75810;SDS011;64449;50.016;19.954;2023-10-13T03:48:09;5.70;;;3.10;;
75810;SDS011;64449;50.016;19.954;2023-10-13T03:50:37;8.30;;;3.90;;
75810;SDS011;64449;50.016;19.954;2023-10-13T03:53:12;7.00;;;3.30;;
75810;SDS011;64449;50.016;19.954;2023-10-13T03:55:38;8.20;;;3.50;;
75810;SDS011;64449;50.016;19.954;2023-10-13T03:58:05;8.60;;;4.40;;
75810;SDS011;64449;50.016;19.954;2023-10-13T04:00:31;8.50;;;3.90;;
75810;SDS011;64449;50.016;19.954;2023-10-13T04:02:58;8.00;;;3.90;;
75810;SDS011;64449;50.016;19.954;2023-10-13T04:05:32;7.20;;;4.00;;
75810;SDS011;64449;50.016;19.954;2023-10-13T04:08:06;7.70;;;3.90;;
75810;SDS011;64449;50.016;19.954;2023-10-13T04:10:51;11.00;;;5.00;;
75810;SDS011;64449;50.016;19.954;2023-10-13T04:13:18;8.90;;;3.80;;
75810;SDS011;64449;50.016;19.954;2023-10-13T04:16:03;8.30;;;4.60;;
75810;SDS011;64449;50.016;19.954;2023-10-13T04:18:41;9.40;;;4.60;;
75810;SDS011;64449;50.016;19.954;2023-10-13T04:21:19;11.30;;;4.60;;
75810;SDS011;64449;50.016;19.954;2023-10-13T04:24:04;8.50;;;5.00;;
75810;SDS011;64449;50.016;19.954;2023-10-13T04:33:28;7.90;;;4.50;;
75810;SDS011;64449;50.016;19.954;2023-10-13T04:36:02;6.60;;;4.30;;
75810;SDS011;64449;50.016;19.954;2023-10-13T04:38:39;9.40;;;4.80;;
75810;SDS011;64449;50.016;19.954;2023-10-13T04:44:14;8.80;;;4.00;;
75810;SDS011;64449;50.016;19.954;2023-10-13T04:46:59;8.80;;;4.60;;
75810;SDS011;64449;50.016;19.954;2023-10-13T04:49:29;9.00;;;4.50;;
75810;SDS011;64449;50.016;19.954;2023-10-13T04:52:08;9.70;;;4.90;;
75810;SDS011;64449;50.016;19.954;2023-10-13T04:57:13;6.40;;;4.20;;
75810;SDS011;64449;50.016;19.954;2023-10-13T04:59:59;11.20;;;6.00;;
75810;SDS011;64449;50.016;19.954;2023-10-13T05:02:28;9.80;;;5.00;;
75810;SDS011;64449;50.016;19.954;2023-10-13T05:05:00;9.30;;;4.50;;
75810;SDS011;64449;50.016;19.954;2023-10-13T05:07:45;7.80;;;4.60;;
75810;SDS011;64449;50.016;19.954;2023-10-13T05:10:29;9.30;;;4.80;;
75810;SDS011;64449;50.016;19.954;2023-10-13T05:13:14;6.80;;;4.20;;
75810;SDS011;64449;50.016;19.954;2023-10-13T05:15:59;6.90;;;3.40;;
75810;SDS011;64449;50.016;19.954;2023-10-13T05:18:43;7.80;;;4.50;;
75810;SDS011;64449;50.016;19.954;2023-10-13T05:21:27;7.70;;;3.40;;
75810;SDS011;64449;50.016;19.954;2023-10-13T05:24:12;12.20;;;6.40;;
75810;SDS011;64449;50.016;19.954;2023-10-13T05:26:56;9.60;;;5.00;;
75810;SDS011;64449;50.016;19.954;2023-10-13T05:29:40;10.20;;;4.90;;
75810;SDS011;64449;50.016;19.954;2023-10-13T05:32:25;7.70;;;3.90;;
75810;SDS011;64449;50.016;19.954;2023-10-13T05:35:09;11.10;;;5.70;;
75810;SDS011;64449;50.016;19.954;2023-10-13T05:37:53;13.40;;;6.70;;
75810;SDS011;64449;50.016;19.954;2023-10-13T05:40:37;13.30;;;6.30;;
75810;SDS011;64449;50.016;19.954;2023-10-13T05:43:21;11.00;;;5.40;;
75810;SDS011;64449;50.016;19.954;2023-10-13T05:46:06;9.50;;;5.20;;
75810;SDS011;64449;50.016;19.954;2023-10-13T05:48:50;10.20;;;5.10;;
75810;SDS011;64449;50.016;19.954;2023-10-13T05:51:29;8.60;;;4.90;;
75810;SDS011;64449;50.016;19.954;2023-10-13T05:54:08;11.80;;;5.30;;
75810;SDS011;64449;50.016;19.954;2023-10-13T05:56:44;9.90;;;5.40;;
75810;SDS011;64449;50.016;19.954;2023-10-13T05:59:35;11.50;;;6.70;;
75810;SDS011;64449;50.016;19.954;2023-10-13T06:02:21;11.50;;;6.20;;
75810;SDS011;64449;50.016;19.954;2023-10-13T06:05:07;10.60;;;6.70;;
75810;SDS011;64449;50.016;19.954;2023-10-13T06:07:52;9.70;;;5.60;;
75810;SDS011;64449;50.016;19.954;2023-10-13T06:10:37;17.30;;;8.20;;
75810;SDS011;64449;50.016;19.954;2023-10-13T06:13:22;19.00;;;7.40;;
75810;SDS011;64449;50.016;19.954;2023-10-13T06:16:07;13.60;;;6.90;;
75810;SDS011;64449;50.016;19.954;2023-10-13T06:18:51;10.20;;;7.50;;
75810;SDS011;64449;50.016;19.954;2023-10-13T06:21:36;13.70;;;6.50;;
75810;SDS011;64449;50.016;19.954;2023-10-13T06:24:20;11.70;;;6.70;;
75810;SDS011;64449;50.016;19.954;2023-10-13T06:27:04;13.50;;;7.10;;
75810;SDS011;64449;50.016;19.954;2023-10-13T06:29:48;15.30;;;7.70;;
75810;SDS011;64449;50.016;19.954;2023-10-13T06:32:14;15.30;;;7.60;;
75810;SDS011;64449;50.016;19.954;2023-10-13T06:34:41;10.30;;;6.60;;
75810;SDS011;64449;50.016;19.954;2023-10-13T06:37:16;14.20;;;7.20;;
75810;SDS011;64449;50.016;19.954;2023-10-13T06:39:51;12.90;;;6.90;;
75810;SDS011;64449;50.016;19.954;2023-10-13T06:42:21;17.40;;;7.80;;
75810;SDS011;64449;50.016;19.954;2023-10-13T06:44:50;12.00;;;6.90;;
75810;SDS011;64449;50.016;19.954;2023-10-13T06:47:18;12.80;;;7.90;;
75810;SDS011;64449;50.016;19.954;2023-10-13T06:49:45;16.20;;;8.50;;
75810;SDS011;64449;50.016;19.954;2023-10-13T06:52:13;10.30;;;7.10;;
75810;SDS011;64449;50.016;19.954;2023-10-13T06:54:41;11.80;;;6.70;;
75810;SDS011;64449;50.016;19.954;2023-10-13T06:57:08;12.50;;;6.30;;
75810;SDS011;64449;50.016;19.954;2023-10-13T06:59:48;10.10;;;6.00;;
75810;SDS011;64449;50.016;19.954;2023-10-13T07:02:14;12.60;;;6.30;;
75810;SDS011;64449;50.016;19.954;2023-10-13T07:04:49;10.70;;;5.40;;
75810;SDS011;64449;50.016;19.954;2023-10-13T07:07:22;8.50;;;4.90;;
75810;SDS011;64449;50.016;19.954;2023-10-13T07:09:49;12.00;;;5.10;;
75810;SDS011;64449;50.016;19.954;2023-10-13T07:12:20;8.50;;;4.70;;
75810;SDS011;64449;50.016;19.954;2023-10-13T07:14:58;10.60;;;5.00;;
75810;SDS011;64449;50.016;19.954;2023-10-13T07:17:36;9.80;;;5.10;;
75810;SDS011;64449;50.016;19.954;2023-10-13T07:20:05;11.00;;;6.10;;
75810;SDS011;64449;50.016;19.954;2023-10-13T07:22:42;8.10;;;4.90;;
75810;SDS011;64449;50.016;19.954;2023-10-13T07:25:20;10.60;;;5.00;;
75810;SDS011;64449;50.016;19.954;2023-10-13T07:27:50;10.00;;;5.00;;
75810;SDS011;64449;50.016;19.954;2023-10-13T07:30:15;11.50;;;5.50;;
75810;SDS011;64449;50.016;19.954;2023-10-13T07:32:45;8.10;;;4.60;;
75810;SDS011;64449;50.016;19.954;2023-10-13T07:35:14;9.60;;;5.40;;
75810;SDS011;64449;50.016;19.954;2023-10-13T07:37:44;11.30;;;5.40;;
75810;SDS011;64449;50.016;19.954;2023-10-13T07:40:13;14.00;;;5.60;;
75810;SDS011;64449;50.016;19.954;2023-10-13T07:42:52;8.50;;;5.20;;
75810;SDS011;64449;50.016;19.954;2023-10-13T07:45:35;10.60;;;5.10;;
75810;SDS011;64449;50.016;19.954;2023-10-13T07:48:05;7.50;;;4.30;;
75810;SDS011;64449;50.016;19.954;2023-10-13T07:50:45;10.10;;;4.90;;
75810;SDS011;64449;50.016;19.954;2023-10-13T07:53:26;5.90;;;4.10;;
75810;SDS011;64449;50.016;19.954;2023-10-13T07:55:59;6.40;;;4.00;;
75810;SDS011;64449;50.016;19.954;2023-10-13T07:58:31;9.30;;;5.30;;
75810;SDS011;64449;50.016;19.954;2023-10-13T08:00:57;9.70;;;4.20;;
75810;SDS011;64449;50.016;19.954;2023-10-13T08:03:35;8.70;;;4.90;;
75810;SDS011;64449;50.016;19.954;2023-10-13T08:06:17;7.90;;;3.90;;
75810;SDS011;64449;50.016;19.954;2023-10-13T08:08:43;11.50;;;4.40;;
75810;SDS011;64449;50.016;19.954;2023-10-13T08:11:15;10.10;;;4.30;;
75810;SDS011;64449;50.016;19.954;2023-10-13T08:13:48;7.40;;;4.40;;
75810;SDS011;64449;50.016;19.954;2023-10-13T08:16:46;9.30;;;3.70;;
75810;SDS011;64449;50.016;19.954;2023-10-13T08:19:25;9.10;;;3.90;;
75810;SDS011;64449;50.016;19.954;2023-10-13T08:22:17;7.60;;;3.20;;
75810;SDS011;64449;50.016;19.954;2023-10-13T08:24:43;9.30;;;3.80;;
75810;SDS011;64449;50.016;19.954;2023-10-13T08:27:09;7.90;;;3.40;;
75810;SDS011;64449;50.016;19.954;2023-10-13T08:29:59;9.70;;;3.60;;
75810;SDS011;64449;50.016;19.954;2023-10-13T08:32:44;7.90;;;3.30;;
75810;SDS011;64449;50.016;19.954;2023-10-13T08:35:10;5.40;;;3.30;;
75810;SDS011;64449;50.016;19.954;2023-10-13T08:37:47;6.30;;;3.10;;
75810;SDS011;64449;50.016;19.954;2023-10-13T08:40:26;6.40;;;3.00;;
75810;SDS011;64449;50.016;19.954;2023-10-13T08:43:10;6.50;;;3.30;;
75810;SDS011;64449;50.016;19.954;2023-10-13T08:45:37;7.40;;;3.20;;
75810;SDS011;64449;50.016;19.954;2023-10-13T08:48:05;7.80;;;3.10;;
75810;SDS011;64449;50.016;19.954;2023-10-13T08:53:32;8.30;;;3.30;;
75810;SDS011;64449;50.016;19.954;2023-10-13T08:56:12;7.20;;;2.90;;
75810;SDS011;64449;50.016;19.954;2023-10-13T08:58:39;6.90;;;3.00;;
75810;SDS011;64449;50.016;19.954;2023-10-13T09:04:16;12.30;;;3.60;;
75810;SDS011;64449;50.016;19.954;2023-10-13T09:09:12;5.20;;;3.20;;
75810;SDS011;64449;50.016;19.954;2023-10-13T09:11:53;5.70;;;3.10;;
75810;SDS011;64449;50.016;19.954;2023-10-13T09:14:33;6.70;;;3.40;;
75810;SDS011;64449;50.016;19.954;2023-10-13T09:17:02;6.10;;;3.10;;
75810;SDS011;64449;50.016;19.954;2023-10-13T09:19:44;8.80;;;3.70;;
75810;SDS011;64449;50.016;19.954;2023-10-13T09:22:22;6.30;;;3.30;;
75810;SDS011;64449;50.016;19.954;2023-10-13T09:25:01;6.50;;;3.00;;
75810;SDS011;64449;50.016;19.954;2023-10-13T09:27:31;7.30;;;3.80;;
75810;SDS011;64449;50.016;19.954;2023-10-13T09:29:58;8.10;;;3.50;;
75810;SDS011;64449;50.016;19.954;2023-10-13T09:32:44;5.80;;;3.70;;
75810;SDS011;64449;50.016;19.954;2023-10-13T09:35:19;6.80;;;3.80;;
75810;SDS011;64449;50.016;19.954;2023-10-13T09:37:49;5.80;;;3.20;;
75810;SDS011;64449;50.016;19.954;2023-10-13T09:40:15;8.90;;;3.60;;
75810;SDS011;64449;50.016;19.954;2023-10-13T09:43:03;7.80;;;3.70;;
75810;SDS011;64449;50.016;19.954;2023-10-13T09:45:40;5.40;;;3.70;;
75810;SDS011;64449;50.016;19.954;2023-10-13T09:48:22;5.10;;;3.10;;
75810;SDS011;64449;50.016;19.954;2023-10-13T09:51:05;8.90;;;3.60;;
75810;SDS011;64449;50.016;19.954;2023-10-13T09:53:37;7.60;;;3.00;;
75810;SDS011;64449;50.016;19.954;2023-10-13T09:58:47;7.00;;;3.30;;
75810;SDS011;64449;50.016;19.954;2023-10-13T10:01:19;6.20;;;3.50;;
75810;SDS011;64449;50.016;19.954;2023-10-13T10:04:08;5.00;;;2.60;;
75810;SDS011;64449;50.016;19.954;2023-10-13T10:06:58;5.40;;;3.10;;
75810;SDS011;64449;50.016;19.954;2023-10-13T10:09:27;7.50;;;3.20;;
75810;SDS011;64449;50.016;19.954;2023-10-13T10:17:41;6.40;;;2.90;;
75810;SDS011;64449;50.016;19.954;2023-10-13T10:20:08;7.90;;;3.50;;
75810;SDS011;64449;50.016;19.954;2023-10-13T10:22:57;4.60;;;2.90;;
75810;SDS011;64449;50.016;19.954;2023-10-13T10:25:33;7.30;;;3.00;;
75810;SDS011;64449;50.016;19.954;2023-10-13T10:28:03;5.20;;;2.90;;
75810;SDS011;64449;50.016;19.954;2023-10-13T10:30:31;8.10;;;3.50;;
75810;SDS011;64449;50.016;19.954;2023-10-13T10:33:07;5.30;;;3.20;;
75810;SDS011;64449;50.016;19.954;2023-10-13T10:35:38;5.60;;;3.20;;
75810;SDS011;64449;50.016;19.954;2023-10-13T10:43:28;8.50;;;3.40;;
75810;SDS011;64449;50.016;19.954;2023-10-13T10:46:13;7.20;;;3.50;;
75810;SDS011;64449;50.016;19.954;2023-10-13T10:48:39;6.40;;;3.40;;
75810;SDS011;64449;50.016;19.954;2023-10-13T10:51:08;6.70;;;3.00;;
75810;SDS011;64449;50.016;19.954;2023-10-13T10:53:40;5.60;;;3.10;;
75810;SDS011;64449;50.016;19.954;2023-10-13T10:56:12;4.60;;;2.60;;
75810;SDS011;64449;50.016;19.954;2023-10-13T10:58:50;6.10;;;2.50;;
75810;SDS011;64449;50.016;19.954;2023-10-13T11:01:22;5.70;;;3.00;;
75810;SDS011;64449;50.016;19.954;2023-10-13T11:03:59;4.50;;;2.70;;
75810;SDS011;64449;50.016;19.954;2023-10-13T11:06:50;6.30;;;2.80;;
75810;SDS011;64449;50.016;19.954;2023-10-13T11:09:26;6.10;;;3.00;;
75810;SDS011;64449;50.016;19.954;2023-10-13T11:14:31;5.00;;;3.00;;
75810;SDS011;64449;50.016;19.954;2023-10-13T11:16:58;5.40;;;2.90;;
75810;SDS011;64449;50.016;19.954;2023-10-13T11:22:09;6.00;;;3.10;;
75810;SDS011;64449;50.016;19.954;2023-10-13T11:27:28;7.60;;;4.10;;
75810;SDS011;64449;50.016;19.954;2023-10-13T11:30:10;4.10;;;3.00;;
75810;SDS011;64449;50.016;19.954;2023-10-13T11:32:44;5.00;;;2.60;;
75810;SDS011;64449;50.016;19.954;2023-10-13T11:35:12;9.10;;;2.80;;
75810;SDS011;64449;50.016;19.954;2023-10-13T11:37:54;4.80;;;2.70;;
75810;SDS011;64449;50.016;19.954;2023-10-13T11:40:38;6.80;;;2.50;;
75810;SDS011;64449;50.016;19.954;2023-10-13T11:43:10;5.60;;;2.60;;
75810;SDS011;64449;50.016;19.954;2023-10-13T11:45:42;4.90;;;2.60;;
75810;SDS011;64449;50.016;19.954;2023-10-13T11:48:31;5.30;;;2.80;;
75810;SDS011;64449;50.016;19.954;2023-10-13T11:51:02;6.30;;;2.90;;
75810;SDS011;64449;50.016;19.954;2023-10-13T11:53:42;3.90;;;2.10;;
75810;SDS011;64449;50.016;19.954;2023-10-13T11:56:16;4.50;;;2.40;;
75810;SDS011;64449;50.016;19.954;2023-10-13T11:58:46;4.30;;;2.00;;
75810;SDS011;64449;50.016;19.954;2023-10-13T12:01:12;4.80;;;2.30;;
75810;SDS011;64449;50.016;19.954;2023-10-13T12:03:41;4.90;;;2.50;;
75810;SDS011;64449;50.016;19.954;2023-10-13T12:06:29;6.20;;;3.50;;
75810;SDS011;64449;50.016;19.954;2023-10-13T12:08:59;3.50;;;2.00;;
75810;SDS011;64449;50.016;19.954;2023-10-13T12:11:39;4.80;;;2.40;;
75810;SDS011;64449;50.016;19.954;2023-10-13T12:14:10;5.70;;;2.30;;
75810;SDS011;64449;50.016;19.954;2023-10-13T12:16:47;4.50;;;2.40;;
75810;SDS011;64449;50.016;19.954;2023-10-13T12:19:21;6.30;;;2.60;;
75810;SDS011;64449;50.016;19.954;2023-10-13T12:21:56;5.50;;;2.50;;
75810;SDS011;64449;50.016;19.954;2023-10-13T12:24:23;5.80;;;2.30;;
75810;SDS011;64449;50.016;19.954;2023-10-13T12:27:04;5.70;;;2.60;;
75810;SDS011;64449;50.016;19.954;2023-10-13T12:29:50;4.40;;;2.50;;
75810;SDS011;64449;50.016;19.954;2023-10-13T12:32:19;5.20;;;2.10;;
75810;SDS011;64449;50.016;19.954;2023-10-13T12:34:51;4.80;;;2.20;;
75810;SDS011;64449;50.016;19.954;2023-10-13T12:37:41;4.10;;;2.30;;
75810;SDS011;64449;50.016;19.954;2023-10-13T12:40:11;5.20;;;2.30;;
75810;SDS011;64449;50.016;19.954;2023-10-13T12:42:56;5.50;;;2.70;;
75810;SDS011;64449;50.016;19.954;2023-10-13T12:45:41;4.30;;;2.40;;
75810;SDS011;64449;50.016;19.954;2023-10-13T12:48:26;5.80;;;3.00;;
75810;SDS011;64449;50.016;19.954;2023-10-13T12:51:11;32.80;;;4.80;;
75810;SDS011;64449;50.016;19.954;2023-10-13T12:56:13;4.40;;;2.50;;
75810;SDS011;64449;50.016;19.954;2023-10-13T12:58:38;4.00;;;2.20;;
75810;SDS011;64449;50.016;19.954;2023-10-13T13:01:04;5.30;;;2.50;;
75810;SDS011;64449;50.016;19.954;2023-10-13T13:03:31;7.30;;;3.10;;
75810;SDS011;64449;50.016;19.954;2023-10-13T13:05:58;5.50;;;2.60;;
75810;SDS011;64449;50.016;19.954;2023-10-13T13:08:23;4.50;;;2.20;;
75810;SDS011;64449;50.016;19.954;2023-10-13T13:10:49;5.00;;;2.50;;
75810;SDS011;64449;50.016;19.954;2023-10-13T13:13:17;4.20;;;2.20;;
75810;SDS011;64449;50.016;19.954;2023-10-13T13:15:49;4.40;;;2.10;;
75810;SDS011;64449;50.016;19.954;2023-10-13T13:18:16;5.40;;;2.40;;
75810;SDS011;64449;50.016;19.954;2023-10-13T13:20:41;5.80;;;2.80;;
75810;SDS011;64449;50.016;19.954;2023-10-13T13:23:18;4.70;;;2.40;;
75810;SDS011;64449;50.016;19.954;2023-10-13T13:25:47;7.20;;;2.80;;
75810;SDS011;64449;50.016;19.954;2023-10-13T13:28:13;4.80;;;2.10;;
75810;SDS011;64449;50.016;19.954;2023-10-13T13:30:43;6.10;;;2.80;;
75810;SDS011;64449;50.016;19.954;2023-10-13T13:33:09;5.90;;;2.50;;
75810;SDS011;64449;50.016;19.954;2023-10-13T13:35:38;5.10;;;2.30;;
75810;SDS011;64449;50.016;19.954;2023-10-13T13:38:04;4.60;;;1.90;;
75810;SDS011;64449;50.016;19.954;2023-10-13T13:40:41;4.90;;;2.50;;
75810;SDS011;64449;50.016;19.954;2023-10-13T13:43:09;4.80;;;2.00;;
75810;SDS011;64449;50.016;19.954;2023-10-13T13:45:44;5.20;;;2.20;;
75810;SDS011;64449;50.016;19.954;2023-10-13T13:48:10;4.40;;;2.30;;
75810;SDS011;64449;50.016;19.954;2023-10-13T13:50:40;5.40;;;3.00;;
75810;SDS011;64449;50.016;19.954;2023-10-13T13:53:06;4.30;;;2.20;;
75810;SDS011;64449;50.016;19.954;2023-10-13T13:55:35;4.50;;;2.40;;
75810;SDS011;64449;50.016;19.954;2023-10-13T13:58:01;4.80;;;2.60;;
75810;SDS011;64449;50.016;19.954;2023-10-13T14:00:26;6.00;;;2.50;;
75810;SDS011;64449;50.016;19.954;2023-10-13T14:03:08;3.80;;;2.10;;
75810;SDS011;64449;50.016;19.954;2023-10-13T14:05:44;4.20;;;2.30;;
75810;SDS011;64449;50.016;19.954;2023-10-13T14:08:10;4.00;;;2.30;;
75810;SDS011;64449;50.016;19.954;2023-10-13T14:10:40;4.90;;;2.40;;
75810;SDS011;64449;50.016;19.954;2023-10-13T14:13:24;3.60;;;2.00;;
75810;SDS011;64449;50.016;19.954;2023-10-13T14:16:08;4.90;;;2.70;;
75810;SDS011;64449;50.016;19.954;2023-10-13T14:18:41;5.70;;;2.30;;
75810;SDS011;64449;50.016;19.954;2023-10-13T14:21:08;5.60;;;2.30;;
75810;SDS011;64449;50.016;19.954;2023-10-13T14:23:33;4.10;;;2.30;;
75810;SDS011;64449;50.016;19.954;2023-10-13T14:25:59;6.40;;;3.70;;
75810;SDS011;64449;50.016;19.954;2023-10-13T14:28:26;6.10;;;2.50;;
75810;SDS011;64449;50.016;19.954;2023-10-13T14:31:03;5.00;;;2.60;;
75810;SDS011;64449;50.016;19.954;2023-10-13T14:33:35;5.80;;;2.70;;
75810;SDS011;64449;50.016;19.954;2023-10-13T14:36:02;5.80;;;3.10;;
75810;SDS011;64449;50.016;19.954;2023-10-13T14:38:30;5.40;;;2.30;;
75810;SDS011;64449;50.016;19.954;2023-10-13T14:40:58;4.90;;;2.50;;
75810;SDS011;64449;50.016;19.954;2023-10-13T14:43:24;4.00;;;2.30;;
75810;SDS011;64449;50.016;19.954;2023-10-13T14:45:55;4.80;;;2.20;;
75810;SDS011;64449;50.016;19.954;2023-10-13T14:48:20;4.20;;;2.40;;
75810;SDS011;64449;50.016;19.954;2023-10-13T14:50:49;4.00;;;2.10;;
75810;SDS011;64449;50.016;19.954;2023-10-13T14:53:14;6.00;;;2.40;;
75810;SDS011;64449;50.016;19.954;2023-10-13T14:55:44;3.90;;;2.30;;
75810;SDS011;64449;50.016;19.954;2023-10-13T14:58:10;6.40;;;2.40;;
75810;SDS011;64449;50.016;19.954;2023-10-13T15:00:41;5.30;;;2.30;;
75810;SDS011;64449;50.016;19.954;2023-10-13T15:03:10;5.20;;;2.60;;
75810;SDS011;64449;50.016;19.954;2023-10-13T15:05:39;7.10;;;2.10;;
75810;SDS011;64449;50.016;19.954;2023-10-13T15:08:08;4.10;;;2.20;;
75810;SDS011;64449;50.016;19.954;2023-10-13T15:10:34;7.50;;;2.80;;
75810;SDS011;64449;50.016;19.954;2023-10-13T15:13:03;8.20;;;3.20;;
75810;SDS011;64449;50.016;19.954;2023-10-13T15:15:30;6.70;;;2.80;;
75810;SDS011;64449;50.016;19.954;2023-10-13T15:17:57;6.30;;;2.80;;
75810;SDS011;64449;50.016;19.954;2023-10-13T15:20:23;6.20;;;3.20;;
75810;SDS011;64449;50.016;19.954;2023-10-13T15:22:48;5.60;;;3.00;;
75810;SDS011;64449;50.016;19.954;2023-10-13T15:25:14;10.30;;;2.90;;
75810;SDS011;64449;50.016;19.954;2023-10-13T15:27:48;4.60;;;2.70;;
75810;SDS011;64449;50.016;19.954;2023-10-13T15:30:27;5.20;;;2.50;;
75810;SDS011;64449;50.016;19.954;2023-10-13T15:33:07;4.80;;;2.30;;
75810;SDS011;64449;50.016;19.954;2023-10-13T15:35:33;6.10;;;3.20;;
75810;SDS011;64449;50.016;19.954;2023-10-13T15:37:59;6.40;;;2.70;;
75810;SDS011;64449;50.016;19.954;2023-10-13T15:40:25;6.10;;;3.10;;
75810;SDS011;64449;50.016;19.954;2023-10-13T15:42:52;5.90;;;2.70;;
75810;SDS011;64449;50.016;19.954;2023-10-13T15:45:24;5.50;;;2.90;;
75810;SDS011;64449;50.016;19.954;2023-10-13T15:47:57;5.90;;;3.10;;
75810;SDS011;64449;50.016;19.954;2023-10-13T15:50:23;7.00;;;2.60;;
75810;SDS011;64449;50.016;19.954;2023-10-13T15:52:48;7.50;;;3.30;;
75810;SDS011;64449;50.016;19.954;2023-10-13T15:55:14;8.40;;;2.90;;
75810;SDS011;64449;50.016;19.954;2023-10-13T15:57:42;5.80;;;2.80;;